createdAt,value
2022-11-02T00:00:25.224Z,66.84
2022-11-02T00:01:25.525Z,66.64
2022-11-02T00:02:25.635Z,66.74
2022-11-02T00:03:25.744Z,66.74
2022-11-02T00:04:25.924Z,66.74
2022-11-02T00:05:26.115Z,66.64
2022-11-02T00:06:26.305Z,66.67
2022-11-02T00:07:26.489Z,66.57
2022-11-02T00:08:26.659Z,66.67
2022-11-02T00:09:26.851Z,66.57
2022-11-02T00:10:27.038Z,66.67
2022-11-02T00:11:27.251Z,66.57
2022-11-02T00:12:27.381Z,66.57
2022-11-02T00:13:27.567Z,66.57
2022-11-02T00:14:27.755Z,66.47
2022-11-02T00:15:27.938Z,66.47
2022-11-02T00:16:28.140Z,66.47
2022-11-02T00:17:28.309Z,66.50
2022-11-02T00:18:28.489Z,66.50
2022-11-02T00:19:28.669Z,66.40
2022-11-02T00:20:28.860Z,66.50
2022-11-02T00:21:29.067Z,66.50
2022-11-02T00:22:29.220Z,66.50
2022-11-02T00:23:29.368Z,66.50
2022-11-02T00:24:29.554Z,66.50
2022-11-02T00:25:29.732Z,66.50
2022-11-02T00:26:29.915Z,66.50
2022-11-02T00:27:30.092Z,66.50
2022-11-02T00:28:30.291Z,66.53
2022-11-02T00:29:33.773Z,66.53
2022-11-02T00:30:30.632Z,66.53
2022-11-02T00:31:30.847Z,66.53
2022-11-02T00:32:30.983Z,66.53
2022-11-02T00:33:31.174Z,66.63
2022-11-02T00:34:31.376Z,66.63
2022-11-02T00:35:31.518Z,66.53
2022-11-02T00:36:31.729Z,66.63
2022-11-02T00:38:32.045Z,66.63
2022-11-02T00:39:32.217Z,66.67
2022-11-02T00:40:32.409Z,66.67
2022-11-02T00:41:32.590Z,66.67
2022-11-02T00:42:32.798Z,66.67
2022-11-02T00:43:32.974Z,66.77
2022-11-02T00:44:33.127Z,66.77
2022-11-02T00:45:33.312Z,66.67
2022-11-02T00:46:33.498Z,66.67
2022-11-02T00:47:33.724Z,66.77
2022-11-02T00:48:33.831Z,66.77
2022-11-02T00:49:34.006Z,66.77
2022-11-02T00:50:34.199Z,66.77
2022-11-02T00:51:34.379Z,66.77
2022-11-02T00:52:34.558Z,66.90
2022-11-02T00:53:34.741Z,66.80
2022-11-02T00:54:34.929Z,66.90
2022-11-02T00:55:35.110Z,66.90
2022-11-02T00:56:35.353Z,66.90
2022-11-02T00:57:35.451Z,66.90
2022-11-02T00:58:35.635Z,66.90
2022-11-02T00:59:35.820Z,66.90
2022-11-02T01:00:36.014Z,66.90
2022-11-02T01:01:36.364Z,67.00
2022-11-02T01:02:36.488Z,67.00
2022-11-02T01:03:36.554Z,67.00
2022-11-02T01:04:36.752Z,67.00
2022-11-02T01:05:36.913Z,67.00
2022-11-02T01:06:37.123Z,67.00
2022-11-02T01:07:37.263Z,67.03
2022-11-02T01:08:37.448Z,67.00
2022-11-02T01:09:37.648Z,67.00
2022-11-02T01:10:37.827Z,67.03
2022-11-02T01:11:38.024Z,67.03
2022-11-02T01:12:38.165Z,67.03
2022-11-02T01:13:38.357Z,67.03
2022-11-02T01:14:38.541Z,67.03
2022-11-02T01:15:38.724Z,67.03
2022-11-02T01:16:38.961Z,67.03
2022-11-02T01:17:39.079Z,67.03
2022-11-02T01:18:39.263Z,67.03
2022-11-02T01:19:39.445Z,67.03
2022-11-02T01:20:39.647Z,67.13
2022-11-02T01:21:39.816Z,67.13
2022-11-02T01:22:39.965Z,67.13
2022-11-02T01:23:40.142Z,67.03
2022-11-02T01:24:40.329Z,67.13
2022-11-02T01:25:40.513Z,67.13
2022-11-02T01:26:40.718Z,67.13
2022-11-02T01:27:40.858Z,67.16
2022-11-02T01:28:41.054Z,67.16
2022-11-02T01:29:41.225Z,67.16
2022-11-02T01:30:41.414Z,67.16
2022-11-02T01:31:41.630Z,67.16
2022-11-02T01:32:41.771Z,67.16
2022-11-02T01:33:41.960Z,67.07
2022-11-02T01:34:42.141Z,67.16
2022-11-02T01:35:42.326Z,67.16
2022-11-02T01:36:42.522Z,67.16
2022-11-02T01:37:42.711Z,67.16
2022-11-02T01:38:42.883Z,67.16
2022-11-02T01:39:43.067Z,67.16
2022-11-02T01:40:43.253Z,67.16
2022-11-02T01:41:43.448Z,67.16
2022-11-02T01:42:43.633Z,67.16
2022-11-02T01:43:43.775Z,67.16
2022-11-02T01:44:43.954Z,67.07
2022-11-02T01:45:44.136Z,67.16
2022-11-02T01:46:44.325Z,67.16
2022-11-02T01:47:44.525Z,67.16
2022-11-02T01:48:44.700Z,67.07
2022-11-02T01:49:44.880Z,67.10
2022-11-02T01:50:45.070Z,67.19
2022-11-02T01:51:45.238Z,67.10
2022-11-02T01:52:45.444Z,67.10
2022-11-02T01:53:45.610Z,67.10
2022-11-02T01:54:45.797Z,67.10
2022-11-02T01:55:45.968Z,67.10
2022-11-02T01:56:46.165Z,67.10
2022-11-02T01:57:46.346Z,67.10
2022-11-02T01:58:46.518Z,66.99
2022-11-02T01:59:46.697Z,66.99
2022-11-02T02:00:46.880Z,66.99
2022-11-02T02:01:47.130Z,66.99
2022-11-02T02:02:47.349Z,66.99
2022-11-02T02:03:47.408Z,66.99
2022-11-02T02:04:47.588Z,66.89
2022-11-02T02:05:47.772Z,66.89
2022-11-02T02:06:47.950Z,66.89
2022-11-02T02:07:48.141Z,66.89
2022-11-02T02:08:48.323Z,66.93
2022-11-02T02:09:51.245Z,66.93
2022-11-02T02:10:48.672Z,66.93
2022-11-02T02:11:48.849Z,66.93
2022-11-02T02:12:49.043Z,66.93
2022-11-02T02:13:49.213Z,66.93
2022-11-02T02:14:49.400Z,66.93
2022-11-02T02:15:49.583Z,66.93
2022-11-02T02:16:49.773Z,66.93
2022-11-02T02:17:49.966Z,66.93
2022-11-02T02:18:50.134Z,66.93
2022-11-02T02:19:50.325Z,66.82
2022-11-02T02:20:50.515Z,66.82
2022-11-02T02:21:50.686Z,66.82
2022-11-02T02:22:50.896Z,66.82
2022-11-02T02:23:51.027Z,66.82
2022-11-02T02:24:51.215Z,66.82
2022-11-02T02:25:51.397Z,66.72
2022-11-02T02:26:51.576Z,66.82
2022-11-02T02:27:51.804Z,66.82
2022-11-02T02:28:51.946Z,66.82
2022-11-02T02:29:52.127Z,66.82
2022-11-02T02:30:52.305Z,66.82
2022-11-02T02:31:52.477Z,66.75
2022-11-02T02:32:52.678Z,66.72
2022-11-02T02:33:52.824Z,66.75
2022-11-02T02:34:53.004Z,66.75
2022-11-02T02:35:53.192Z,66.75
2022-11-02T02:36:53.379Z,66.75
2022-11-02T02:37:53.573Z,66.75
2022-11-02T02:38:53.751Z,66.65
2022-11-02T02:39:53.925Z,66.75
2022-11-02T02:40:54.102Z,66.75
2022-11-02T02:41:54.304Z,66.75
2022-11-02T02:42:54.489Z,66.75
2022-11-02T02:43:54.661Z,66.75
2022-11-02T02:44:54.846Z,66.75
2022-11-02T02:45:55.026Z,66.65
2022-11-02T02:46:56.420Z,66.65
2022-11-02T02:47:55.392Z,66.65
2022-11-02T02:48:55.573Z,66.65
2022-11-02T02:49:55.762Z,66.65
2022-11-02T02:50:55.943Z,66.65
2022-11-02T02:51:56.146Z,66.65
2022-11-02T02:52:56.287Z,66.65
2022-11-02T02:53:56.464Z,66.65
2022-11-02T02:54:56.655Z,66.65
2022-11-02T02:55:56.824Z,66.65
2022-11-02T02:56:57.026Z,66.65
2022-11-02T02:57:57.195Z,66.69
2022-11-02T02:58:57.397Z,66.69
2022-11-02T02:59:57.555Z,66.58
2022-11-02T03:00:57.765Z,66.69
2022-11-02T03:01:58.007Z,66.58
2022-11-02T03:02:58.087Z,66.58
2022-11-02T03:03:58.277Z,66.58
2022-11-02T03:04:58.457Z,66.69
2022-11-02T03:05:58.647Z,66.69
2022-11-02T03:06:58.849Z,66.58
2022-11-02T03:07:58.987Z,66.69
2022-11-02T03:08:59.169Z,66.58
2022-11-02T03:09:59.356Z,66.58
2022-11-02T03:10:59.557Z,66.58
2022-11-02T03:11:59.693Z,66.58
2022-11-02T03:12:59.879Z,66.58
2022-11-02T03:14:00.067Z,66.58
2022-11-02T03:15:00.262Z,66.58
2022-11-02T03:16:00.438Z,66.58
2022-11-02T03:17:00.671Z,66.58
2022-11-02T03:18:00.836Z,66.58
2022-11-02T03:19:00.951Z,66.58
2022-11-02T03:20:01.374Z,66.58
2022-11-02T03:21:01.319Z,66.58
2022-11-02T03:22:01.490Z,66.58
2022-11-02T03:23:01.672Z,66.58
2022-11-02T03:24:01.863Z,66.61
2022-11-02T03:25:02.094Z,66.52
2022-11-02T03:26:02.230Z,66.52
2022-11-02T03:27:02.413Z,66.52
2022-11-02T03:28:02.943Z,66.52
2022-11-02T03:29:02.758Z,66.52
2022-11-02T03:30:02.958Z,66.52
2022-11-02T03:31:03.129Z,66.52
2022-11-02T03:32:03.304Z,66.52
2022-11-02T03:33:03.487Z,66.52
2022-11-02T03:34:03.675Z,66.52
2022-11-02T03:35:03.870Z,66.52
2022-11-02T03:36:04.010Z,66.52
2022-11-02T03:37:04.213Z,66.52
2022-11-02T03:38:04.611Z,66.52
2022-11-02T03:39:04.543Z,66.41
2022-11-02T03:40:04.738Z,66.52
2022-11-02T03:41:04.922Z,66.52
2022-11-02T03:42:05.097Z,66.52
2022-11-02T03:43:05.278Z,66.52
2022-11-02T03:44:05.449Z,66.52
2022-11-02T03:45:05.883Z,66.52
2022-11-02T03:46:05.820Z,66.52
2022-11-02T03:47:06.009Z,66.52
2022-11-02T03:48:06.631Z,66.52
2022-11-02T03:49:07.704Z,66.52
2022-11-02T03:50:06.543Z,66.52
2022-11-02T03:51:06.719Z,66.52
2022-11-02T03:52:06.894Z,66.52
2022-11-02T03:53:07.081Z,66.52
2022-11-02T03:54:07.334Z,66.52
2022-11-02T03:55:07.441Z,66.52
2022-11-02T03:56:07.622Z,66.52
2022-11-02T03:57:07.817Z,66.55
2022-11-02T03:58:08.113Z,66.55
2022-11-02T03:59:08.183Z,66.55
2022-11-02T04:00:08.352Z,66.55
2022-11-02T04:01:08.597Z,66.55
2022-11-02T04:02:08.774Z,66.55
2022-11-02T04:03:08.915Z,66.64
2022-11-02T04:04:09.086Z,66.55
2022-11-02T04:05:09.274Z,66.55
2022-11-02T04:06:09.457Z,66.55
2022-11-02T04:07:09.644Z,66.55
2022-11-02T04:08:09.817Z,66.55
2022-11-02T04:09:10.006Z,66.55
2022-11-02T04:10:10.177Z,66.55
2022-11-02T04:11:10.365Z,66.55
2022-11-02T04:12:10.564Z,66.55
2022-11-02T04:13:10.745Z,66.55
2022-11-02T04:14:10.907Z,66.55
2022-11-02T04:15:11.099Z,66.55
2022-11-02T04:16:11.279Z,66.55
2022-11-02T04:17:11.478Z,66.55
2022-11-02T04:18:11.620Z,66.55
2022-11-02T04:19:11.809Z,66.55
2022-11-02T04:20:11.979Z,66.55
2022-11-02T04:21:12.169Z,66.55
2022-11-02T04:22:12.364Z,66.55
2022-11-02T04:23:12.557Z,66.55
2022-11-02T04:24:12.689Z,66.55
2022-11-02T04:25:12.887Z,66.55
2022-11-02T04:26:13.062Z,66.55
2022-11-02T04:27:16.725Z,66.55
2022-11-02T04:28:14.433Z,66.44
2022-11-02T04:29:13.596Z,66.55
2022-11-02T04:30:13.778Z,66.58
2022-11-02T04:31:13.962Z,66.58
2022-11-02T04:32:14.152Z,66.55
2022-11-02T04:33:14.322Z,66.55
2022-11-02T04:34:14.513Z,66.55
2022-11-02T04:35:14.699Z,66.58
2022-11-02T04:36:14.885Z,66.67
2022-11-02T04:37:15.066Z,66.58
2022-11-02T04:38:15.263Z,66.58
2022-11-02T04:39:15.394Z,66.58
2022-11-02T04:40:15.587Z,66.58
2022-11-02T04:41:15.765Z,66.58
2022-11-02T04:42:15.966Z,66.58
2022-11-02T04:43:16.106Z,66.58
2022-11-02T04:44:16.296Z,66.58
2022-11-02T04:45:16.474Z,66.58
2022-11-02T04:46:16.668Z,66.58
2022-11-02T04:47:16.855Z,66.58
2022-11-02T04:48:17.035Z,66.58
2022-11-02T04:49:17.218Z,66.58
2022-11-02T04:50:17.396Z,66.67
2022-11-02T04:51:17.576Z,66.67
2022-11-02T04:52:17.802Z,66.67
2022-11-02T04:53:17.938Z,66.67
2022-11-02T04:54:18.128Z,66.67
2022-11-02T04:55:18.308Z,66.67
2022-11-02T04:56:18.493Z,66.67
2022-11-02T04:57:18.690Z,66.78
2022-11-02T04:58:18.838Z,66.78
2022-11-02T04:59:19.042Z,66.78
2022-11-02T05:00:19.185Z,66.78
2022-11-02T05:01:19.474Z,66.78
2022-11-02T05:02:19.634Z,66.78
2022-11-02T05:03:19.690Z,66.81
2022-11-02T05:04:19.891Z,66.78
2022-11-02T05:05:20.028Z,66.81
2022-11-02T05:06:20.219Z,66.88
2022-11-02T05:07:20.392Z,66.88
2022-11-02T05:08:20.581Z,66.91
2022-11-02T05:09:20.782Z,66.88
2022-11-02T05:10:20.923Z,66.91
2022-11-02T05:11:21.106Z,66.91
2022-11-02T05:12:25.257Z,66.88
2022-11-02T05:13:22.449Z,66.91
2022-11-02T05:14:21.623Z,66.91
2022-11-02T05:15:21.792Z,66.91
2022-11-02T05:16:21.984Z,66.91
2022-11-02T05:17:22.163Z,66.91
2022-11-02T05:19:22.513Z,67.01
2022-11-02T05:20:22.686Z,66.91
2022-11-02T05:21:22.873Z,67.01
2022-11-02T05:22:23.057Z,67.01
2022-11-02T05:23:23.236Z,67.01
2022-11-02T05:24:23.443Z,67.01
2022-11-02T05:25:23.584Z,67.01
2022-11-02T05:26:23.774Z,67.01
2022-11-02T05:27:23.940Z,67.01
2022-11-02T05:28:24.126Z,67.01
2022-11-02T05:29:24.341Z,67.01
2022-11-02T05:30:24.489Z,67.01
2022-11-02T05:31:24.668Z,67.01
2022-11-02T05:32:24.858Z,67.01
2022-11-02T05:33:30.276Z,67.11
2022-11-02T05:34:26.243Z,67.11
2022-11-02T05:35:25.427Z,67.11
2022-11-02T05:36:25.599Z,67.11
2022-11-02T05:37:25.782Z,67.01
2022-11-02T05:38:26.035Z,67.11
2022-11-02T05:39:26.136Z,67.01
2022-11-02T05:40:26.309Z,67.01
2022-11-02T05:41:26.500Z,67.11
2022-11-02T05:42:26.671Z,67.11
2022-11-02T05:43:26.852Z,67.11
2022-11-02T05:44:27.061Z,67.11
2022-11-02T05:45:27.212Z,67.01
2022-11-02T05:46:27.395Z,67.11
2022-11-02T05:47:27.564Z,67.01
2022-11-02T05:48:27.752Z,67.11
2022-11-02T05:49:27.952Z,67.11
2022-11-02T05:50:28.104Z,67.01
2022-11-02T05:51:28.283Z,67.11
2022-11-02T05:52:28.468Z,67.11
2022-11-02T05:53:28.654Z,67.11
2022-11-02T05:54:28.860Z,67.11
2022-11-02T05:55:28.994Z,67.11
2022-11-02T05:56:29.180Z,67.11
2022-11-02T05:57:29.355Z,67.01
2022-11-02T05:58:29.554Z,67.01
2022-11-02T05:59:29.767Z,67.11
2022-11-02T06:00:29.897Z,67.11
2022-11-02T06:01:30.125Z,67.11
2022-11-02T06:02:30.250Z,67.11
2022-11-02T06:03:30.431Z,67.11
2022-11-02T06:04:30.627Z,67.11
2022-11-02T06:05:30.846Z,67.22
2022-11-02T06:06:30.988Z,67.11
2022-11-02T06:07:31.163Z,67.22
2022-11-02T06:08:31.347Z,67.22
2022-11-02T06:09:31.548Z,67.22
2022-11-02T06:10:31.699Z,67.22
2022-11-02T06:11:31.854Z,67.22
2022-11-02T06:12:32.040Z,67.22
2022-11-02T06:13:32.189Z,67.22
2022-11-02T06:14:32.380Z,67.22
2022-11-02T06:15:32.535Z,67.22
2022-11-02T06:16:32.729Z,67.22
2022-11-02T06:17:32.883Z,67.22
2022-11-02T06:18:33.046Z,67.22
2022-11-02T06:19:33.211Z,67.22
2022-11-02T06:20:33.390Z,67.22
2022-11-02T06:21:33.551Z,67.22
2022-11-02T06:22:33.703Z,67.25
2022-11-02T06:23:33.852Z,67.22
2022-11-02T06:24:34.069Z,67.22
2022-11-02T06:25:34.222Z,67.22
2022-11-02T06:26:34.383Z,67.22
2022-11-02T06:27:34.543Z,67.25
2022-11-02T06:28:34.714Z,67.22
2022-11-02T06:29:34.887Z,67.22
2022-11-02T06:30:35.061Z,67.22
2022-11-02T06:31:35.218Z,67.22
2022-11-02T06:32:35.384Z,67.22
2022-11-02T06:33:35.551Z,67.32
2022-11-02T06:34:35.720Z,67.25
2022-11-02T06:35:35.873Z,67.32
2022-11-02T06:36:36.035Z,67.22
2022-11-02T06:37:36.215Z,67.22
2022-11-02T06:38:36.397Z,67.32
2022-11-02T06:40:36.726Z,67.32
2022-11-02T06:41:36.886Z,67.22
2022-11-02T06:42:44.865Z,67.32
2022-11-02T06:43:38.264Z,67.22
2022-11-02T06:44:37.395Z,67.32
2022-11-02T06:45:37.548Z,67.32
2022-11-02T06:46:37.710Z,67.32
2022-11-02T06:47:37.868Z,67.32
2022-11-02T06:48:45.059Z,67.32
2022-11-02T06:49:38.206Z,67.22
2022-11-02T06:50:38.377Z,67.32
2022-11-02T06:51:38.534Z,67.32
2022-11-02T06:52:38.739Z,67.22
2022-11-02T06:53:38.895Z,67.32
2022-11-02T06:54:39.089Z,67.32
2022-11-02T06:55:39.263Z,67.42
2022-11-02T06:56:39.420Z,67.42
2022-11-02T06:57:39.575Z,67.42
2022-11-02T06:58:39.760Z,67.42
2022-11-02T06:59:39.924Z,67.32
2022-11-02T07:00:40.139Z,67.42
2022-11-02T07:01:40.415Z,67.42
2022-11-02T07:02:40.442Z,67.42
2022-11-02T07:03:40.601Z,67.42
2022-11-02T07:04:40.768Z,67.42
2022-11-02T07:05:40.922Z,67.42
2022-11-02T07:06:41.091Z,67.42
2022-11-02T07:07:41.266Z,67.42
2022-11-02T07:08:41.427Z,67.42
2022-11-02T07:09:41.583Z,67.42
2022-11-02T07:10:41.755Z,67.42
2022-11-02T07:11:41.914Z,67.42
2022-11-02T07:12:42.110Z,67.42
2022-11-02T07:13:42.258Z,67.42
2022-11-02T07:14:42.434Z,67.42
2022-11-02T07:15:42.584Z,67.22
2022-11-02T07:16:42.775Z,67.42
2022-11-02T07:17:42.934Z,67.32
2022-11-02T07:18:43.129Z,67.32
2022-11-02T07:19:43.286Z,67.32
2022-11-02T07:20:43.496Z,67.32
2022-11-02T07:21:46.633Z,67.29
2022-11-02T07:22:43.821Z,67.08
2022-11-02T07:23:44.001Z,66.88
2022-11-02T07:24:44.197Z,66.78
2022-11-02T07:25:44.363Z,66.67
2022-11-02T07:26:44.557Z,66.47
2022-11-02T07:27:44.737Z,66.55
2022-11-02T07:28:44.882Z,66.35
2022-11-02T07:29:45.049Z,66.35
2022-11-02T07:30:45.219Z,66.01
2022-11-02T07:31:45.378Z,65.14
2022-11-02T07:32:45.561Z,63.73
2022-11-02T07:33:45.720Z,62.90
2022-11-02T07:34:45.896Z,62.29
2022-11-02T07:35:46.071Z,62.40
2022-11-02T07:36:46.239Z,62.49
2022-11-02T07:37:46.424Z,62.60
2022-11-02T07:38:46.589Z,62.70
2022-11-02T07:39:46.762Z,62.90
2022-11-02T07:40:46.926Z,62.37
2022-11-02T07:41:51.758Z,61.93
2022-11-02T07:42:48.274Z,61.73
2022-11-02T07:43:47.440Z,61.96
2022-11-02T07:44:47.612Z,62.16
2022-11-02T07:45:47.785Z,62.37
2022-11-02T07:46:47.964Z,62.66
2022-11-02T07:47:48.132Z,62.66
2022-11-02T07:48:48.315Z,62.66
2022-11-02T07:49:48.493Z,62.77
2022-11-02T07:50:48.704Z,62.87
2022-11-02T07:51:48.875Z,63.07
2022-11-02T07:52:49.034Z,63.37
2022-11-02T07:53:49.205Z,63.50
2022-11-02T07:54:49.356Z,63.50
2022-11-02T07:55:49.534Z,63.70
2022-11-02T07:56:49.696Z,63.90
2022-11-02T07:57:49.882Z,63.90
2022-11-02T07:58:50.044Z,64.01
2022-11-02T07:59:50.206Z,64.31
2022-11-02T08:00:50.386Z,66.39
2022-11-02T08:01:50.623Z,67.20
2022-11-02T08:02:50.760Z,67.10
2022-11-02T08:03:50.859Z,67.10
2022-11-02T08:04:51.070Z,67.50
2022-11-02T08:05:51.253Z,67.80
2022-11-02T08:06:51.409Z,67.80
2022-11-02T08:07:51.559Z,68.01
2022-11-02T08:08:51.743Z,67.60
2022-11-02T08:09:51.908Z,67.40
2022-11-02T08:10:52.071Z,67.20
2022-11-02T08:11:52.230Z,67.10
2022-11-02T08:12:52.429Z,66.50
2022-11-02T08:13:52.590Z,66.47
2022-11-02T08:14:52.758Z,66.27
2022-11-02T08:15:52.929Z,65.99
2022-11-02T08:16:53.080Z,65.96
2022-11-02T08:17:53.242Z,66.09
2022-11-02T08:18:53.406Z,65.66
2022-11-02T08:19:53.562Z,65.26
2022-11-02T08:20:55.788Z,65.26
2022-11-02T08:21:53.933Z,65.36
2022-11-02T08:22:54.135Z,65.66
2022-11-02T08:23:58.374Z,65.86
2022-11-02T08:24:54.493Z,65.56
2022-11-02T08:25:54.682Z,64.95
2022-11-02T08:26:55.128Z,64.86
2022-11-02T08:27:55.046Z,65.26
2022-11-02T08:28:55.208Z,65.26
2022-11-02T08:29:55.385Z,65.16
2022-11-02T08:30:55.595Z,65.06
2022-11-02T08:31:55.767Z,64.75
2022-11-02T08:32:57.223Z,64.86
2022-11-02T08:33:56.517Z,65.06
2022-11-02T08:34:56.268Z,65.66
2022-11-02T08:35:56.437Z,65.86
2022-11-02T08:36:56.601Z,66.27
2022-11-02T08:37:56.782Z,66.47
2022-11-02T08:38:56.977Z,65.46
2022-11-02T08:39:57.139Z,65.16
2022-11-02T08:40:57.308Z,64.95
2022-11-02T08:41:57.467Z,65.06
2022-11-02T08:42:57.667Z,65.06
2022-11-02T08:43:57.821Z,65.36
2022-11-02T08:44:58.019Z,66.36
2022-11-02T08:46:14.268Z,66.13
2022-11-02T08:46:59.377Z,66.27
2022-11-02T08:47:58.574Z,66.03
2022-11-02T08:48:58.740Z,65.62
2022-11-02T08:49:58.917Z,65.02
2022-11-02T08:50:59.109Z,65.73
2022-11-02T08:51:59.296Z,65.93
2022-11-02T08:52:59.500Z,66.23
2022-11-02T08:53:59.684Z,66.03
2022-11-02T08:54:59.832Z,66.33
2022-11-02T08:56:00.005Z,66.10
2022-11-02T08:57:00.213Z,66.10
2022-11-02T08:58:00.395Z,66.30
2022-11-02T08:59:00.564Z,66.07
2022-11-02T09:00:00.741Z,65.36
2022-11-02T09:01:00.891Z,64.56
2022-11-02T09:02:01.232Z,64.33
2022-11-02T09:03:01.302Z,64.33
2022-11-02T09:04:01.456Z,65.03
2022-11-02T09:05:01.622Z,65.10
2022-11-02T09:06:01.780Z,64.50
2022-11-02T09:07:01.975Z,64.40
2022-11-02T09:08:02.451Z,64.50
2022-11-02T09:09:02.307Z,63.87
2022-11-02T09:10:02.467Z,63.76
2022-11-02T09:11:02.652Z,63.26
2022-11-02T09:12:02.817Z,62.93
2022-11-02T09:13:03.404Z,62.83
2022-11-02T09:14:03.169Z,62.30
2022-11-02T09:15:03.310Z,61.80
2022-11-02T09:16:03.478Z,61.87
2022-11-02T09:17:03.660Z,61.47
2022-11-02T09:18:04.083Z,60.94
2022-11-02T09:19:03.985Z,60.53
2022-11-02T09:20:04.140Z,60.51
2022-11-02T09:21:04.300Z,60.51
2022-11-02T09:22:05.865Z,59.68
2022-11-02T09:23:04.645Z,58.18
2022-11-02T09:24:04.810Z,57.45
2022-11-02T09:25:04.970Z,57.35
2022-11-02T09:26:05.138Z,57.12
2022-11-02T09:27:05.316Z,56.92
2022-11-02T09:28:05.799Z,56.72
2022-11-02T09:29:05.662Z,56.59
2022-11-02T09:30:05.823Z,55.89
2022-11-02T09:31:08.959Z,55.79
2022-11-02T09:32:07.186Z,55.59
2022-11-02T09:33:06.797Z,55.89
2022-11-02T09:34:06.532Z,54.99
2022-11-02T09:35:06.697Z,55.29
2022-11-02T09:36:06.895Z,55.40
2022-11-02T09:37:07.015Z,55.59
2022-11-02T09:38:07.187Z,54.99
2022-11-02T09:39:07.347Z,55.09
2022-11-02T09:40:07.514Z,55.40
2022-11-02T09:41:07.690Z,55.77
2022-11-02T09:42:07.855Z,55.27
2022-11-02T09:43:08.336Z,55.36
2022-11-02T09:44:08.178Z,54.86
2022-11-02T09:45:08.348Z,54.67
2022-11-02T09:46:08.513Z,54.27
2022-11-02T09:47:55.791Z,53.87
2022-11-02T09:48:25.150Z,53.84
2022-11-02T09:49:10.039Z,53.44
2022-11-02T09:50:09.230Z,53.94
2022-11-02T09:51:09.390Z,53.84
2022-11-02T09:52:09.560Z,54.02
2022-11-02T09:53:09.719Z,54.11
2022-11-02T09:54:13.369Z,53.92
2022-11-02T09:55:11.090Z,53.49
2022-11-02T09:56:10.264Z,53.29
2022-11-02T09:57:10.419Z,52.39
2022-11-02T09:58:10.701Z,52.99
2022-11-02T09:59:10.773Z,54.29
2022-11-02T10:00:10.944Z,53.36
2022-11-02T10:01:11.167Z,52.67
2022-11-02T10:02:11.284Z,53.06
2022-11-02T10:03:11.465Z,52.04
2022-11-02T10:04:11.635Z,52.14
2022-11-02T10:05:11.795Z,52.12
2022-11-02T10:06:11.963Z,52.12
2022-11-02T10:07:12.117Z,51.12
2022-11-02T10:08:12.294Z,50.90
2022-11-02T10:09:12.487Z,50.30
2022-11-02T10:10:12.625Z,50.20
2022-11-02T10:11:12.785Z,50.08
2022-11-02T10:12:12.948Z,50.18
2022-11-02T10:13:13.351Z,50.05
2022-11-02T10:14:13.277Z,50.75
2022-11-02T10:15:13.437Z,50.03
2022-11-02T10:16:13.598Z,49.21
2022-11-02T10:17:13.761Z,48.61
2022-11-02T10:18:13.959Z,48.41
2022-11-02T10:19:14.079Z,47.89
2022-11-02T10:20:14.273Z,47.89
2022-11-02T10:21:14.433Z,47.60
2022-11-02T10:22:14.631Z,47.17
2022-11-02T10:23:14.801Z,47.77
2022-11-02T10:24:14.981Z,47.47
2022-11-02T10:25:15.141Z,47.28
2022-11-02T10:26:15.312Z,46.76
2022-11-02T10:27:15.523Z,46.86
2022-11-02T10:28:15.836Z,47.05
2022-11-02T10:29:15.838Z,47.16
2022-11-02T10:30:16.002Z,46.95
2022-11-02T10:31:16.158Z,46.64
2022-11-02T10:32:16.315Z,46.34
2022-11-02T10:33:16.506Z,47.03
2022-11-02T10:34:16.664Z,47.21
2022-11-02T10:35:33.891Z,46.51
2022-11-02T10:36:19.263Z,46.61
2022-11-02T10:37:17.163Z,46.71
2022-11-02T10:38:17.679Z,45.79
2022-11-02T10:39:17.508Z,45.00
2022-11-02T10:40:17.672Z,44.98
2022-11-02T10:41:17.836Z,45.38
2022-11-02T10:42:18.015Z,46.15
2022-11-02T10:43:18.177Z,47.14
2022-11-02T10:44:18.346Z,45.45
2022-11-02T10:45:18.499Z,44.76
2022-11-02T10:46:18.672Z,44.45
2022-11-02T10:47:18.851Z,45.04
2022-11-02T10:48:19.015Z,44.54
2022-11-02T10:49:19.179Z,44.32
2022-11-02T10:50:19.418Z,43.83
2022-11-02T10:51:19.541Z,44.42
2022-11-02T10:52:19.713Z,44.23
2022-11-02T10:53:40.208Z,45.09
2022-11-02T10:54:25.356Z,44.20
2022-11-02T10:55:21.203Z,43.12
2022-11-02T10:56:20.377Z,43.12
2022-11-02T10:57:20.537Z,42.82
2022-11-02T10:58:20.716Z,43.79
2022-11-02T10:59:20.874Z,42.80
2022-11-02T11:00:21.045Z,42.99
2022-11-02T11:01:21.248Z,43.29
2022-11-02T11:02:21.364Z,45.68
2022-11-02T11:03:21.570Z,44.01
2022-11-02T11:04:21.695Z,45.07
2022-11-02T11:05:21.865Z,44.58
2022-11-02T11:06:22.028Z,44.18
2022-11-02T11:07:22.186Z,43.98
2022-11-02T11:08:22.358Z,43.71
2022-11-02T11:09:22.497Z,44.20
2022-11-02T11:10:22.708Z,44.72
2022-11-02T11:11:22.880Z,45.12
2022-11-02T11:12:23.048Z,45.23
2022-11-02T11:16:26.495Z,44.46
2022-11-02T11:19:41.142Z,46.19
2022-11-02T11:20:25.433Z,45.90
2022-11-02T11:21:24.570Z,46.42
2022-11-02T11:22:24.750Z,47.61
2022-11-02T11:23:24.911Z,47.11
2022-11-02T11:24:25.149Z,48.42
2022-11-02T11:25:27.882Z,46.34
2022-11-02T11:26:25.441Z,46.44
2022-11-02T11:27:25.604Z,46.26
2022-11-02T11:28:25.809Z,46.26
2022-11-02T11:29:25.974Z,46.46
2022-11-02T11:31:27.332Z,46.68
2022-11-02T11:32:30.140Z,46.78
2022-11-02T11:33:26.644Z,46.90
2022-11-02T11:34:26.837Z,48.10
2022-11-02T11:35:27.000Z,47.30
2022-11-02T11:36:27.327Z,46.72
2022-11-02T11:37:27.321Z,46.62
2022-11-02T11:38:27.506Z,46.83
2022-11-02T11:39:27.641Z,47.22
2022-11-02T11:40:27.833Z,48.04
2022-11-02T11:41:28.038Z,47.94
2022-11-02T11:42:28.209Z,48.34
2022-11-02T11:43:28.360Z,49.36
2022-11-02T11:44:28.524Z,50.75
2022-11-02T11:45:28.681Z,49.95
2022-11-02T11:46:28.852Z,51.05
2022-11-02T11:47:29.021Z,51.15
2022-11-02T11:48:29.191Z,50.85
2022-11-02T11:50:02.957Z,51.97
2022-11-02T11:50:30.654Z,51.07
2022-11-02T11:51:29.743Z,51.87
2022-11-02T11:52:32.083Z,51.67
2022-11-02T11:53:30.093Z,52.27
2022-11-02T11:54:30.285Z,52.27
2022-11-02T11:55:30.438Z,51.37
2022-11-02T11:56:30.625Z,50.98
2022-11-02T11:57:30.799Z,50.90
2022-11-02T11:58:30.945Z,50.50
2022-11-02T11:59:31.104Z,50.70
2022-11-02T12:00:31.297Z,50.80
2022-11-02T12:01:31.561Z,50.50
2022-11-02T12:02:31.757Z,50.20
2022-11-02T12:03:31.799Z,50.70
2022-11-02T12:04:31.990Z,50.40
2022-11-02T12:05:32.168Z,50.73
2022-11-02T12:06:32.313Z,50.82
2022-11-02T12:07:32.479Z,51.03
2022-11-02T12:08:32.647Z,51.42
2022-11-02T12:09:32.810Z,51.03
2022-11-02T12:10:32.972Z,51.32
2022-11-02T12:11:33.131Z,51.22
2022-11-02T12:12:33.300Z,51.22
2022-11-02T12:13:33.476Z,50.95
2022-11-02T12:14:33.660Z,51.15
2022-11-02T12:15:33.812Z,51.65
2022-11-02T12:16:34.051Z,51.45
2022-11-02T12:17:34.166Z,51.75
2022-11-02T12:18:34.325Z,51.54
2022-11-02T12:19:34.552Z,52.07
2022-11-02T12:20:34.665Z,51.97
2022-11-02T12:21:34.864Z,51.47
2022-11-02T12:22:35.013Z,51.27
2022-11-02T12:23:35.165Z,51.27
2022-11-02T12:24:35.364Z,51.57
2022-11-02T12:25:35.524Z,51.57
2022-11-02T12:26:35.696Z,51.79
2022-11-02T12:27:35.849Z,51.50
2022-11-02T12:28:36.060Z,51.79
2022-11-02T12:29:36.207Z,51.10
2022-11-02T12:30:36.418Z,50.90
2022-11-02T12:31:36.576Z,50.20
2022-11-02T12:32:36.767Z,50.40
2022-11-02T12:33:36.960Z,50.79
2022-11-02T12:34:37.154Z,51.20
2022-11-02T12:35:37.318Z,50.79
2022-11-02T12:36:50.829Z,50.79
2022-11-02T12:37:41.340Z,51.27
2022-11-02T12:38:37.808Z,51.47
2022-11-02T12:39:37.991Z,51.25
2022-11-02T12:40:38.176Z,50.65
2022-11-02T12:41:38.332Z,49.68
2022-11-02T12:42:42.227Z,49.65
2022-11-02T12:43:38.680Z,50.05
2022-11-02T12:44:38.891Z,49.35
2022-11-02T12:45:39.052Z,49.08
2022-11-02T12:46:42.294Z,48.46
2022-11-02T12:47:40.404Z,49.05
2022-11-02T12:48:39.622Z,49.93
2022-11-02T12:49:39.772Z,50.52
2022-11-02T12:50:39.940Z,49.13
2022-11-02T12:51:40.094Z,50.13
2022-11-02T12:52:40.264Z,51.70
2022-11-02T12:53:40.447Z,51.59
2022-11-02T12:54:41.708Z,51.47
2022-11-02T12:55:40.775Z,50.27
2022-11-02T12:56:40.944Z,50.85
2022-11-02T12:57:41.097Z,52.44
2022-11-02T12:58:41.310Z,51.62
2022-11-02T12:59:41.456Z,51.62
2022-11-02T13:00:41.665Z,51.72
2022-11-02T13:01:41.957Z,52.29
2022-11-02T13:02:41.987Z,52.99
2022-11-02T13:03:42.188Z,52.00